Portada
METAR-TAF:

METAR-TAF

Aeroports :

Varadero, Cuba

latitud: 23-08N, longitud: 081-17W, altitud: 3 m

Observació

L'informe es va fer fa 17 minuts, a les 14:50 UTC
Vent 11 kt del Est amb ràfegues de 21 kt, variant entre Est/Nord-Est i Sud-Est
Temperatura 25°C
Humitat 69%
Pressió 1019 hPa
Visibilitat: 9000 m
Escasses núvols a una alçada de 2000 ft

METAR: MUVR 261450Z 10011G21KT 070V130 9000 FEW020 25/19 Q1019

Hora: 10:07 (15:07 UTC)

Pronòstic

L'informe es va fer fa 4 hores i 7 minuts, a les 11:00 UTC
Pronòstic vàlid del 26 a les 12 UTC al 27 a les 12 UTC
Vent 3 kt amb direcció variable
Visibilitat: 9000 m
Núvols disperses a una alçada de 2000 ft
Evolucionant progressivament
l' 26 a les 13 UTC al 26 a les 15 UTC
Vent 9 kt del Est/Nord-Est
Evolucionant progressivament
l' 27 a les 01 UTC al 27 a les 03 UTC
Vent 3 kt amb direcció variable

TAF: MUVR 261100Z 2612/2712 VRB03KT 9000 SCT020 BECMG 2613/2615 07009KT BECMG 2701/2703 VRB03KT

Observacions i pronòstics meteorològics de més de 4000 aeroports (METAR i TAF).

Les estacions disponibles són els punts grocs i vermells al mapa.

Posi el ratolí al punt desitjat per veure el nom de l'estació.

Feu clic per veure les observacions i els pronòstics meteorològics.

Per canviar el mapa: feu clic els botons verds amb una creu de color negre per apropar; al botó verd amb un guió per allunyar la imatge; o en les fletxes verdes per a mapes adjacents.


METAR-TAF: